sensor_id;sensor_type;location;lat;lon;timestamp;P1;durP1;ratioP1;P2;durP2;ratioP2
72755;SDS011;60881;55.002;73.232;2022-07-06T00:01:02;93.00;;;4.10;;
72755;SDS011;60881;55.002;73.232;2022-07-06T00:03:29;89.15;;;3.80;;
72755;SDS011;60881;55.002;73.232;2022-07-06T00:05:56;50.38;;;3.58;;
72755;SDS011;60881;55.002;73.232;2022-07-06T00:08:22;42.65;;;3.42;;
72755;SDS011;60881;55.002;73.232;2022-07-06T00:10:49;67.88;;;3.70;;
72755;SDS011;60881;55.002;73.232;2022-07-06T00:13:15;46.42;;;3.72;;
72755;SDS011;60881;55.002;73.232;2022-07-06T00:15:42;23.42;;;3.60;;
72755;SDS011;60881;55.002;73.232;2022-07-06T00:18:09;35.13;;;3.95;;
72755;SDS011;60881;55.002;73.232;2022-07-06T00:20:36;48.92;;;3.78;;
72755;SDS011;60881;55.002;73.232;2022-07-06T00:23:07;65.38;;;12.82;;
72755;SDS011;60881;55.002;73.232;2022-07-06T00:25:34;85.30;;;9.70;;
72755;SDS011;60881;55.002;73.232;2022-07-06T00:28:01;47.03;;;5.90;;
72755;SDS011;60881;55.002;73.232;2022-07-06T00:30:28;105.65;;;4.50;;
72755;SDS011;60881;55.002;73.232;2022-07-06T00:32:56;34.63;;;3.90;;
72755;SDS011;60881;55.002;73.232;2022-07-06T00:35:24;32.45;;;3.80;;
72755;SDS011;60881;55.002;73.232;2022-07-06T00:37:51;37.97;;;3.78;;
72755;SDS011;60881;55.002;73.232;2022-07-06T00:40:19;215.70;;;5.40;;
72755;SDS011;60881;55.002;73.232;2022-07-06T00:42:46;215.80;;;5.43;;
72755;SDS011;60881;55.002;73.232;2022-07-06T00:45:16;114.00;;;4.43;;
72755;SDS011;60881;55.002;73.232;2022-07-06T00:47:43;89.35;;;4.88;;
72755;SDS011;60881;55.002;73.232;2022-07-06T00:50:21;24.30;;;4.45;;
72755;SDS011;60881;55.002;73.232;2022-07-06T00:52:52;13.82;;;4.25;;
72755;SDS011;60881;55.002;73.232;2022-07-06T00:55:30;65.07;;;4.93;;
72755;SDS011;60881;55.002;73.232;2022-07-06T00:57:58;40.75;;;5.03;;
72755;SDS011;60881;55.002;73.232;2022-07-06T01:00:29;16.38;;;4.57;;
72755;SDS011;60881;55.002;73.232;2022-07-06T01:02:57;9.48;;;4.35;;
72755;SDS011;60881;55.002;73.232;2022-07-06T01:05:25;53.50;;;5.55;;
72755;SDS011;60881;55.002;73.232;2022-07-06T01:07:54;51.95;;;5.93;;
72755;SDS011;60881;55.002;73.232;2022-07-06T01:10:27;18.17;;;5.50;;
72755;SDS011;60881;55.002;73.232;2022-07-06T01:12:55;22.70;;;5.45;;
72755;SDS011;60881;55.002;73.232;2022-07-06T01:15:31;22.15;;;5.60;;
72755;SDS011;60881;55.002;73.232;2022-07-06T01:17:58;35.88;;;5.57;;
72755;SDS011;60881;55.002;73.232;2022-07-06T01:20:29;23.17;;;5.40;;
72755;SDS011;60881;55.002;73.232;2022-07-06T01:22:58;25.02;;;9.77;;
72755;SDS011;60881;55.002;73.232;2022-07-06T01:25:25;16.27;;;8.48;;
72755;SDS011;60881;55.002;73.232;2022-07-06T01:27:58;19.70;;;8.07;;
72755;SDS011;60881;55.002;73.232;2022-07-06T01:30:26;18.27;;;9.02;;
72755;SDS011;60881;55.002;73.232;2022-07-06T01:32:53;18.42;;;9.43;;
72755;SDS011;60881;55.002;73.232;2022-07-06T01:35:20;17.10;;;9.80;;
72755;SDS011;60881;55.002;73.232;2022-07-06T01:37:57;17.80;;;9.82;;
72755;SDS011;60881;55.002;73.232;2022-07-06T01:40:34;22.40;;;11.27;;
72755;SDS011;60881;55.002;73.232;2022-07-06T01:43:01;22.38;;;11.10;;
72755;SDS011;60881;55.002;73.232;2022-07-06T01:45:30;22.35;;;10.98;;
72755;SDS011;60881;55.002;73.232;2022-07-06T01:48:06;19.60;;;10.55;;
72755;SDS011;60881;55.002;73.232;2022-07-06T01:50:34;18.73;;;10.30;;
72755;SDS011;60881;55.002;73.232;2022-07-06T01:53:01;24.00;;;11.13;;
72755;SDS011;60881;55.002;73.232;2022-07-06T01:55:27;24.20;;;12.90;;
72755;SDS011;60881;55.002;73.232;2022-07-06T01:57:55;21.50;;;12.25;;
72755;SDS011;60881;55.002;73.232;2022-07-06T02:00:26;21.80;;;12.00;;
72755;SDS011;60881;55.002;73.232;2022-07-06T02:02:53;24.02;;;13.15;;
72755;SDS011;60881;55.002;73.232;2022-07-06T02:05:19;29.10;;;14.80;;
72755;SDS011;60881;55.002;73.232;2022-07-06T02:07:46;29.73;;;13.73;;
72755;SDS011;60881;55.002;73.232;2022-07-06T02:10:14;28.63;;;15.40;;
72755;SDS011;60881;55.002;73.232;2022-07-06T02:12:42;30.15;;;15.32;;
72755;SDS011;60881;55.002;73.232;2022-07-06T02:15:09;36.15;;;14.73;;
72755;SDS011;60881;55.002;73.232;2022-07-06T02:17:36;32.28;;;14.63;;
72755;SDS011;60881;55.002;73.232;2022-07-06T02:20:11;33.65;;;15.90;;
72755;SDS011;60881;55.002;73.232;2022-07-06T02:22:37;30.85;;;15.93;;
72755;SDS011;60881;55.002;73.232;2022-07-06T02:25:04;33.67;;;16.02;;
72755;SDS011;60881;55.002;73.232;2022-07-06T02:27:31;34.22;;;16.30;;
72755;SDS011;60881;55.002;73.232;2022-07-06T02:30:01;31.13;;;15.38;;
72755;SDS011;60881;55.002;73.232;2022-07-06T02:32:30;40.92;;;18.67;;
72755;SDS011;60881;55.002;73.232;2022-07-06T02:35:07;39.75;;;18.73;;
72755;SDS011;60881;55.002;73.232;2022-07-06T02:37:39;41.67;;;18.70;;
72755;SDS011;60881;55.002;73.232;2022-07-06T02:40:08;52.72;;;21.30;;
72755;SDS011;60881;55.002;73.232;2022-07-06T02:42:36;46.13;;;21.05;;
72755;SDS011;60881;55.002;73.232;2022-07-06T02:45:09;48.33;;;22.38;;
72755;SDS011;60881;55.002;73.232;2022-07-06T02:47:36;65.20;;;24.95;;
72755;SDS011;60881;55.002;73.232;2022-07-06T02:50:09;56.97;;;21.40;;
72755;SDS011;60881;55.002;73.232;2022-07-06T02:52:36;57.70;;;23.17;;
72755;SDS011;60881;55.002;73.232;2022-07-06T02:55:03;58.75;;;25.52;;
72755;SDS011;60881;55.002;73.232;2022-07-06T02:57:33;61.22;;;25.55;;
72755;SDS011;60881;55.002;73.232;2022-07-06T02:59:59;74.43;;;23.90;;
72755;SDS011;60881;55.002;73.232;2022-07-06T03:02:26;69.30;;;25.60;;
72755;SDS011;60881;55.002;73.232;2022-07-06T03:05:03;77.18;;;27.42;;
72755;SDS011;60881;55.002;73.232;2022-07-06T03:07:30;74.88;;;27.27;;
72755;SDS011;60881;55.002;73.232;2022-07-06T03:10:01;71.97;;;28.48;;
72755;SDS011;60881;55.002;73.232;2022-07-06T03:12:29;69.47;;;25.70;;
72755;SDS011;60881;55.002;73.232;2022-07-06T03:15:06;50.55;;;22.15;;
72755;SDS011;60881;55.002;73.232;2022-07-06T03:17:47;55.58;;;21.85;;
72755;SDS011;60881;55.002;73.232;2022-07-06T03:20:15;49.08;;;20.40;;
72755;SDS011;60881;55.002;73.232;2022-07-06T03:22:43;40.47;;;19.02;;
72755;SDS011;60881;55.002;73.232;2022-07-06T03:25:13;49.63;;;19.85;;
72755;SDS011;60881;55.002;73.232;2022-07-06T03:27:50;39.83;;;17.13;;
72755;SDS011;60881;55.002;73.232;2022-07-06T03:30:24;48.55;;;18.15;;
72755;SDS011;60881;55.002;73.232;2022-07-06T03:32:54;35.20;;;15.85;;
72755;SDS011;60881;55.002;73.232;2022-07-06T03:35:22;32.05;;;16.45;;
72755;SDS011;60881;55.002;73.232;2022-07-06T03:37:51;38.53;;;17.35;;
72755;SDS011;60881;55.002;73.232;2022-07-06T03:40:19;39.97;;;17.52;;
72755;SDS011;60881;55.002;73.232;2022-07-06T03:42:50;41.22;;;19.05;;
72755;SDS011;60881;55.002;73.232;2022-07-06T03:45:20;36.53;;;17.00;;
72755;SDS011;60881;55.002;73.232;2022-07-06T03:47:47;39.10;;;16.60;;
72755;SDS011;60881;55.002;73.232;2022-07-06T03:50:14;30.83;;;15.50;;
72755;SDS011;60881;55.002;73.232;2022-07-06T03:52:41;32.35;;;14.43;;
72755;SDS011;60881;55.002;73.232;2022-07-06T03:55:11;36.85;;;15.45;;
72755;SDS011;60881;55.002;73.232;2022-07-06T03:57:44;33.03;;;14.77;;
72755;SDS011;60881;55.002;73.232;2022-07-06T04:00:15;28.15;;;14.63;;
72755;SDS011;60881;55.002;73.232;2022-07-06T04:02:48;30.33;;;14.60;;
72755;SDS011;60881;55.002;73.232;2022-07-06T04:05:22;29.75;;;15.05;;
72755;SDS011;60881;55.002;73.232;2022-07-06T04:07:52;32.85;;;14.57;;
72755;SDS011;60881;55.002;73.232;2022-07-06T04:10:23;31.23;;;14.02;;
72755;SDS011;60881;55.002;73.232;2022-07-06T04:12:50;25.75;;;13.07;;
72755;SDS011;60881;55.002;73.232;2022-07-06T04:15:18;29.70;;;13.98;;
72755;SDS011;60881;55.002;73.232;2022-07-06T04:17:45;29.98;;;14.23;;
72755;SDS011;60881;55.002;73.232;2022-07-06T04:20:18;31.27;;;15.77;;
72755;SDS011;60881;55.002;73.232;2022-07-06T04:22:45;27.17;;;13.90;;
72755;SDS011;60881;55.002;73.232;2022-07-06T04:25:12;26.85;;;13.30;;
72755;SDS011;60881;55.002;73.232;2022-07-06T04:27:40;37.35;;;15.55;;
72755;SDS011;60881;55.002;73.232;2022-07-06T04:30:08;38.65;;;17.90;;
72755;SDS011;60881;55.002;73.232;2022-07-06T04:32:36;44.33;;;17.45;;
72755;SDS011;60881;55.002;73.232;2022-07-06T04:35:04;41.30;;;16.77;;
72755;SDS011;60881;55.002;73.232;2022-07-06T04:37:31;41.63;;;14.75;;
72755;SDS011;60881;55.002;73.232;2022-07-06T04:39:58;36.42;;;14.13;;
72755;SDS011;60881;55.002;73.232;2022-07-06T04:42:37;34.42;;;13.73;;
72755;SDS011;60881;55.002;73.232;2022-07-06T04:45:14;35.75;;;11.70;;
72755;SDS011;60881;55.002;73.232;2022-07-06T04:47:41;28.02;;;11.82;;
72755;SDS011;60881;55.002;73.232;2022-07-06T04:50:10;43.35;;;15.10;;
72755;SDS011;60881;55.002;73.232;2022-07-06T04:52:39;43.90;;;15.45;;
72755;SDS011;60881;55.002;73.232;2022-07-06T04:55:08;29.10;;;13.32;;
72755;SDS011;60881;55.002;73.232;2022-07-06T04:57:36;33.03;;;13.23;;
72755;SDS011;60881;55.002;73.232;2022-07-06T05:00:04;26.35;;;10.30;;
72755;SDS011;60881;55.002;73.232;2022-07-06T05:02:32;23.17;;;10.27;;
72755;SDS011;60881;55.002;73.232;2022-07-06T05:04:58;22.80;;;9.35;;
72755;SDS011;60881;55.002;73.232;2022-07-06T05:07:25;17.80;;;8.10;;
72755;SDS011;60881;55.002;73.232;2022-07-06T05:09:57;21.95;;;8.75;;
72755;SDS011;60881;55.002;73.232;2022-07-06T05:12:23;26.00;;;11.48;;
72755;SDS011;60881;55.002;73.232;2022-07-06T05:14:51;31.48;;;13.30;;
72755;SDS011;60881;55.002;73.232;2022-07-06T05:17:20;29.17;;;10.70;;
72755;SDS011;60881;55.002;73.232;2022-07-06T05:19:48;18.23;;;8.75;;
72755;SDS011;60881;55.002;73.232;2022-07-06T05:22:17;19.60;;;7.93;;
72755;SDS011;60881;55.002;73.232;2022-07-06T05:24:45;20.58;;;8.82;;
72755;SDS011;60881;55.002;73.232;2022-07-06T05:27:12;21.58;;;7.18;;
72755;SDS011;60881;55.002;73.232;2022-07-06T05:29:38;18.70;;;7.97;;
72755;SDS011;60881;55.002;73.232;2022-07-06T05:32:05;23.88;;;8.52;;
72755;SDS011;60881;55.002;73.232;2022-07-06T05:34:32;21.58;;;10.02;;
72755;SDS011;60881;55.002;73.232;2022-07-06T05:36:59;18.88;;;8.65;;
72755;SDS011;60881;55.002;73.232;2022-07-06T05:39:27;17.65;;;8.50;;
72755;SDS011;60881;55.002;73.232;2022-07-06T05:41:54;17.40;;;8.40;;
72755;SDS011;60881;55.002;73.232;2022-07-06T05:44:20;19.63;;;9.15;;
72755;SDS011;60881;55.002;73.232;2022-07-06T05:46:47;19.00;;;7.10;;
72755;SDS011;60881;55.002;73.232;2022-07-06T05:49:14;22.90;;;7.55;;
72755;SDS011;60881;55.002;73.232;2022-07-06T05:52:00;15.77;;;7.45;;
72755;SDS011;60881;55.002;73.232;2022-07-06T05:54:28;28.60;;;7.78;;
72755;SDS011;60881;55.002;73.232;2022-07-06T05:56:55;18.00;;;6.90;;
72755;SDS011;60881;55.002;73.232;2022-07-06T05:59:22;20.30;;;6.50;;
72755;SDS011;60881;55.002;73.232;2022-07-06T06:01:50;16.20;;;7.53;;
72755;SDS011;60881;55.002;73.232;2022-07-06T06:04:21;19.25;;;7.93;;
72755;SDS011;60881;55.002;73.232;2022-07-06T06:06:48;20.77;;;6.90;;
72755;SDS011;60881;55.002;73.232;2022-07-06T06:09:15;13.07;;;6.63;;
72755;SDS011;60881;55.002;73.232;2022-07-06T06:11:42;24.25;;;7.00;;
72755;SDS011;60881;55.002;73.232;2022-07-06T06:14:09;14.45;;;5.95;;
72755;SDS011;60881;55.002;73.232;2022-07-06T06:16:36;13.98;;;5.93;;
72755;SDS011;60881;55.002;73.232;2022-07-06T06:19:03;12.20;;;5.50;;
72755;SDS011;60881;55.002;73.232;2022-07-06T06:21:30;15.32;;;6.22;;
72755;SDS011;60881;55.002;73.232;2022-07-06T06:23:56;12.80;;;6.40;;
72755;SDS011;60881;55.002;73.232;2022-07-06T06:26:22;11.75;;;5.70;;
72755;SDS011;60881;55.002;73.232;2022-07-06T06:28:49;13.05;;;5.80;;
72755;SDS011;60881;55.002;73.232;2022-07-06T06:31:15;13.48;;;6.30;;
72755;SDS011;60881;55.002;73.232;2022-07-06T06:33:42;10.98;;;6.22;;
72755;SDS011;60881;55.002;73.232;2022-07-06T06:36:08;18.38;;;6.85;;
72755;SDS011;60881;55.002;73.232;2022-07-06T06:38:36;16.63;;;5.78;;
72755;SDS011;60881;55.002;73.232;2022-07-06T06:41:02;14.30;;;6.35;;
72755;SDS011;60881;55.002;73.232;2022-07-06T06:43:29;17.35;;;6.00;;
72755;SDS011;60881;55.002;73.232;2022-07-06T06:46:01;18.05;;;5.55;;
72755;SDS011;60881;55.002;73.232;2022-07-06T06:48:28;12.75;;;6.13;;
72755;SDS011;60881;55.002;73.232;2022-07-06T06:50:56;15.07;;;6.50;;
72755;SDS011;60881;55.002;73.232;2022-07-06T06:53:28;14.55;;;5.90;;
72755;SDS011;60881;55.002;73.232;2022-07-06T06:55:55;18.05;;;6.53;;
72755;SDS011;60881;55.002;73.232;2022-07-06T06:58:23;15.05;;;6.07;;
72755;SDS011;60881;55.002;73.232;2022-07-06T07:00:58;17.35;;;6.80;;
72755;SDS011;60881;55.002;73.232;2022-07-06T07:03:26;13.30;;;6.28;;
72755;SDS011;60881;55.002;73.232;2022-07-06T07:05:52;12.82;;;6.45;;
72755;SDS011;60881;55.002;73.232;2022-07-06T07:08:20;15.85;;;6.35;;
72755;SDS011;60881;55.002;73.232;2022-07-06T07:10:46;14.65;;;6.25;;
72755;SDS011;60881;55.002;73.232;2022-07-06T07:13:13;12.15;;;5.55;;
72755;SDS011;60881;55.002;73.232;2022-07-06T07:15:43;16.58;;;6.07;;
72755;SDS011;60881;55.002;73.232;2022-07-06T07:18:09;13.82;;;6.35;;
72755;SDS011;60881;55.002;73.232;2022-07-06T07:20:36;27.65;;;9.45;;
72755;SDS011;60881;55.002;73.232;2022-07-06T07:23:03;44.00;;;11.18;;
72755;SDS011;60881;55.002;73.232;2022-07-06T07:25:30;31.98;;;8.77;;
72755;SDS011;60881;55.002;73.232;2022-07-06T07:27:56;29.58;;;9.70;;
72755;SDS011;60881;55.002;73.232;2022-07-06T07:30:23;44.00;;;9.55;;
72755;SDS011;60881;55.002;73.232;2022-07-06T07:32:49;39.90;;;11.40;;
72755;SDS011;60881;55.002;73.232;2022-07-06T07:35:17;45.03;;;10.80;;
72755;SDS011;60881;55.002;73.232;2022-07-06T07:37:43;38.50;;;10.50;;
72755;SDS011;60881;55.002;73.232;2022-07-06T07:40:15;38.13;;;10.27;;
72755;SDS011;60881;55.002;73.232;2022-07-06T07:42:48;39.65;;;10.32;;
72755;SDS011;60881;55.002;73.232;2022-07-06T07:45:14;40.75;;;10.10;;
72755;SDS011;60881;55.002;73.232;2022-07-06T07:47:41;39.72;;;10.50;;
72755;SDS011;60881;55.002;73.232;2022-07-06T07:50:10;47.03;;;10.57;;
72755;SDS011;60881;55.002;73.232;2022-07-06T07:52:40;39.67;;;10.35;;
72755;SDS011;60881;55.002;73.232;2022-07-06T07:55:06;30.45;;;10.18;;
72755;SDS011;60881;55.002;73.232;2022-07-06T07:57:33;34.78;;;10.55;;
72755;SDS011;60881;55.002;73.232;2022-07-06T08:00:02;39.00;;;11.27;;
72755;SDS011;60881;55.002;73.232;2022-07-06T08:02:37;43.65;;;12.75;;
72755;SDS011;60881;55.002;73.232;2022-07-06T08:05:03;41.83;;;12.85;;
72755;SDS011;60881;55.002;73.232;2022-07-06T08:07:32;41.28;;;12.00;;
72755;SDS011;60881;55.002;73.232;2022-07-06T08:10:02;52.90;;;11.75;;
72755;SDS011;60881;55.002;73.232;2022-07-06T08:12:29;43.42;;;11.45;;
72755;SDS011;60881;55.002;73.232;2022-07-06T08:14:56;42.25;;;11.45;;
72755;SDS011;60881;55.002;73.232;2022-07-06T08:17:24;47.80;;;12.75;;
72755;SDS011;60881;55.002;73.232;2022-07-06T08:19:50;45.78;;;11.10;;
72755;SDS011;60881;55.002;73.232;2022-07-06T08:24:54;58.08;;;12.05;;
72755;SDS011;60881;55.002;73.232;2022-07-06T08:27:21;54.17;;;12.63;;
72755;SDS011;60881;55.002;73.232;2022-07-06T08:29:48;50.38;;;13.38;;
72755;SDS011;60881;55.002;73.232;2022-07-06T08:32:16;58.67;;;14.23;;
72755;SDS011;60881;55.002;73.232;2022-07-06T08:34:43;54.60;;;14.07;;
72755;SDS011;60881;55.002;73.232;2022-07-06T08:37:10;67.15;;;15.13;;
72755;SDS011;60881;55.002;73.232;2022-07-06T08:39:36;66.60;;;14.85;;
72755;SDS011;60881;55.002;73.232;2022-07-06T08:42:16;58.53;;;16.08;;
72755;SDS011;60881;55.002;73.232;2022-07-06T08:44:46;58.53;;;15.48;;
72755;SDS011;60881;55.002;73.232;2022-07-06T08:47:17;70.15;;;16.00;;
72755;SDS011;60881;55.002;73.232;2022-07-06T08:49:55;70.38;;;16.67;;
72755;SDS011;60881;55.002;73.232;2022-07-06T08:52:22;54.35;;;16.70;;
72755;SDS011;60881;55.002;73.232;2022-07-06T08:54:51;63.38;;;17.40;;
72755;SDS011;60881;55.002;73.232;2022-07-06T08:57:19;57.53;;;16.92;;
72755;SDS011;60881;55.002;73.232;2022-07-06T08:59:46;66.40;;;18.15;;
72755;SDS011;60881;55.002;73.232;2022-07-06T09:02:13;64.28;;;15.88;;
72755;SDS011;60881;55.002;73.232;2022-07-06T09:04:42;62.72;;;15.45;;
72755;SDS011;60881;55.002;73.232;2022-07-06T09:07:10;56.50;;;15.07;;
72755;SDS011;60881;55.002;73.232;2022-07-06T09:09:37;49.45;;;14.32;;
72755;SDS011;60881;55.002;73.232;2022-07-06T09:12:09;50.35;;;15.35;;
72755;SDS011;60881;55.002;73.232;2022-07-06T09:14:43;36.70;;;12.90;;
72755;SDS011;60881;55.002;73.232;2022-07-06T09:17:14;36.25;;;13.23;;
72755;SDS011;60881;55.002;73.232;2022-07-06T09:19:41;45.42;;;13.77;;
72755;SDS011;60881;55.002;73.232;2022-07-06T09:22:24;42.03;;;15.32;;
72755;SDS011;60881;55.002;73.232;2022-07-06T09:25:03;41.83;;;13.77;;
72755;SDS011;60881;55.002;73.232;2022-07-06T09:27:31;46.38;;;13.40;;
72755;SDS011;60881;55.002;73.232;2022-07-06T09:30:09;36.95;;;14.20;;
72755;SDS011;60881;55.002;73.232;2022-07-06T09:32:38;51.83;;;14.75;;
72755;SDS011;60881;55.002;73.232;2022-07-06T09:35:20;52.03;;;14.85;;
72755;SDS011;60881;55.002;73.232;2022-07-06T09:38:13;50.60;;;14.00;;
72755;SDS011;60881;55.002;73.232;2022-07-06T09:40:42;36.90;;;13.77;;
72755;SDS011;60881;55.002;73.232;2022-07-06T09:43:25;40.15;;;14.15;;
72755;SDS011;60881;55.002;73.232;2022-07-06T09:45:54;37.30;;;14.02;;
72755;SDS011;60881;55.002;73.232;2022-07-06T09:48:25;42.97;;;14.18;;
72755;SDS011;60881;55.002;73.232;2022-07-06T09:50:57;40.17;;;13.27;;
72755;SDS011;60881;55.002;73.232;2022-07-06T09:53:25;33.88;;;12.75;;
72755;SDS011;60881;55.002;73.232;2022-07-06T09:55:55;31.40;;;12.45;;
72755;SDS011;60881;55.002;73.232;2022-07-06T09:58:25;27.30;;;11.65;;
72755;SDS011;60881;55.002;73.232;2022-07-06T10:00:53;32.85;;;11.15;;
72755;SDS011;60881;55.002;73.232;2022-07-06T10:03:21;40.22;;;12.25;;
72755;SDS011;60881;55.002;73.232;2022-07-06T10:05:48;36.65;;;12.18;;
72755;SDS011;60881;55.002;73.232;2022-07-06T10:08:34;35.47;;;12.82;;
72755;SDS011;60881;55.002;73.232;2022-07-06T10:11:04;27.73;;;10.75;;
72755;SDS011;60881;55.002;73.232;2022-07-06T10:13:32;30.98;;;10.68;;
72755;SDS011;60881;55.002;73.232;2022-07-06T10:16:01;33.28;;;11.25;;
72755;SDS011;60881;55.002;73.232;2022-07-06T10:18:29;18.17;;;8.27;;
72755;SDS011;60881;55.002;73.232;2022-07-06T10:20:58;23.95;;;8.75;;
72755;SDS011;60881;55.002;73.232;2022-07-06T10:23:25;19.13;;;8.25;;
72755;SDS011;60881;55.002;73.232;2022-07-06T10:25:54;19.75;;;8.73;;
72755;SDS011;60881;55.002;73.232;2022-07-06T10:28:23;23.77;;;8.77;;
72755;SDS011;60881;55.002;73.232;2022-07-06T10:30:52;24.00;;;9.73;;
72755;SDS011;60881;55.002;73.232;2022-07-06T10:33:19;24.17;;;8.57;;
72755;SDS011;60881;55.002;73.232;2022-07-06T10:35:53;19.88;;;8.45;;
72755;SDS011;60881;55.002;73.232;2022-07-06T10:38:30;31.27;;;9.55;;
72755;SDS011;60881;55.002;73.232;2022-07-06T10:41:05;25.77;;;10.13;;
72755;SDS011;60881;55.002;73.232;2022-07-06T10:43:34;26.08;;;8.07;;
72755;SDS011;60881;55.002;73.232;2022-07-06T10:46:16;20.35;;;7.07;;
72755;SDS011;60881;55.002;73.232;2022-07-06T10:48:47;16.80;;;7.82;;
72755;SDS011;60881;55.002;73.232;2022-07-06T10:51:27;22.20;;;6.95;;
72755;SDS011;60881;55.002;73.232;2022-07-06T10:54:01;16.15;;;7.22;;
72755;SDS011;60881;55.002;73.232;2022-07-06T10:56:32;25.90;;;7.53;;
72755;SDS011;60881;55.002;73.232;2022-07-06T10:59:03;23.13;;;7.53;;
72755;SDS011;60881;55.002;73.232;2022-07-06T11:04:47;17.98;;;7.63;;
72755;SDS011;60881;55.002;73.232;2022-07-06T11:07:24;17.08;;;6.90;;
72755;SDS011;60881;55.002;73.232;2022-07-06T11:09:58;26.05;;;7.38;;
72755;SDS011;60881;55.002;73.232;2022-07-06T11:12:26;19.38;;;7.68;;
72755;SDS011;60881;55.002;73.232;2022-07-06T11:14:57;19.40;;;6.90;;
72755;SDS011;60881;55.002;73.232;2022-07-06T11:17:27;17.63;;;6.82;;
72755;SDS011;60881;55.002;73.232;2022-07-06T11:20:08;17.33;;;7.45;;
72755;SDS011;60881;55.002;73.232;2022-07-06T11:22:37;18.00;;;6.30;;
72755;SDS011;60881;55.002;73.232;2022-07-06T11:25:05;20.05;;;6.40;;
72755;SDS011;60881;55.002;73.232;2022-07-06T11:27:35;19.85;;;6.70;;
72755;SDS011;60881;55.002;73.232;2022-07-06T11:30:09;29.13;;;7.07;;
72755;SDS011;60881;55.002;73.232;2022-07-06T11:32:50;15.15;;;6.90;;
72755;SDS011;60881;55.002;73.232;2022-07-06T11:35:21;18.42;;;6.72;;
72755;SDS011;60881;55.002;73.232;2022-07-06T11:37:53;26.63;;;7.38;;
72755;SDS011;60881;55.002;73.232;2022-07-06T11:40:24;17.02;;;6.68;;
72755;SDS011;60881;55.002;73.232;2022-07-06T11:42:53;23.92;;;6.45;;
72755;SDS011;60881;55.002;73.232;2022-07-06T11:45:26;14.82;;;6.18;;
72755;SDS011;60881;55.002;73.232;2022-07-06T11:48:09;15.30;;;6.20;;
72755;SDS011;60881;55.002;73.232;2022-07-06T11:50:40;17.10;;;6.30;;
72755;SDS011;60881;55.002;73.232;2022-07-06T11:53:14;20.88;;;6.57;;
72755;SDS011;60881;55.002;73.232;2022-07-06T11:55:42;15.50;;;6.38;;
72755;SDS011;60881;55.002;73.232;2022-07-06T11:58:10;14.13;;;6.50;;
72755;SDS011;60881;55.002;73.232;2022-07-06T12:00:37;16.55;;;8.20;;
72755;SDS011;60881;55.002;73.232;2022-07-06T12:03:04;14.77;;;6.15;;
72755;SDS011;60881;55.002;73.232;2022-07-06T12:05:31;19.70;;;9.40;;
72755;SDS011;60881;55.002;73.232;2022-07-06T12:08:04;16.35;;;5.68;;
72755;SDS011;60881;55.002;73.232;2022-07-06T12:10:32;22.90;;;6.30;;
72755;SDS011;60881;55.002;73.232;2022-07-06T12:13:03;13.27;;;5.78;;
72755;SDS011;60881;55.002;73.232;2022-07-06T12:15:37;15.13;;;6.63;;
72755;SDS011;60881;55.002;73.232;2022-07-06T12:18:03;15.18;;;5.43;;
72755;SDS011;60881;55.002;73.232;2022-07-06T12:20:41;12.60;;;5.63;;
72755;SDS011;60881;55.002;73.232;2022-07-06T12:23:08;11.43;;;4.88;;
72755;SDS011;60881;55.002;73.232;2022-07-06T12:25:36;17.85;;;4.88;;
72755;SDS011;60881;55.002;73.232;2022-07-06T12:28:23;19.88;;;5.95;;
72755;SDS011;60881;55.002;73.232;2022-07-06T12:31:01;16.35;;;6.45;;
72755;SDS011;60881;55.002;73.232;2022-07-06T12:33:28;12.60;;;5.53;;
72755;SDS011;60881;55.002;73.232;2022-07-06T12:36:13;19.30;;;5.70;;
72755;SDS011;60881;55.002;73.232;2022-07-06T12:38:52;15.95;;;4.80;;
72755;SDS011;60881;55.002;73.232;2022-07-06T12:41:29;15.48;;;4.80;;
72755;SDS011;60881;55.002;73.232;2022-07-06T12:44:04;15.77;;;5.93;;
72755;SDS011;60881;55.002;73.232;2022-07-06T12:49:18;14.77;;;5.38;;
72755;SDS011;60881;55.002;73.232;2022-07-06T12:54:50;12.90;;;4.25;;
72755;SDS011;60881;55.002;73.232;2022-07-06T12:57:17;11.10;;;4.43;;
72755;SDS011;60881;55.002;73.232;2022-07-06T13:02:25;11.90;;;4.70;;
72755;SDS011;60881;55.002;73.232;2022-07-06T13:05:01;19.15;;;4.68;;
72755;SDS011;60881;55.002;73.232;2022-07-06T13:07:47;15.15;;;5.97;;
72755;SDS011;60881;55.002;73.232;2022-07-06T13:10:15;15.57;;;4.75;;
72755;SDS011;60881;55.002;73.232;2022-07-06T13:12:43;11.55;;;4.38;;
72755;SDS011;60881;55.002;73.232;2022-07-06T13:15:11;10.55;;;3.85;;
72755;SDS011;60881;55.002;73.232;2022-07-06T13:17:38;7.95;;;4.05;;
72755;SDS011;60881;55.002;73.232;2022-07-06T13:20:05;20.00;;;8.98;;
72755;SDS011;60881;55.002;73.232;2022-07-06T13:22:32;29.67;;;6.13;;
72755;SDS011;60881;55.002;73.232;2022-07-06T13:25:00;15.45;;;5.57;;
72755;SDS011;60881;55.002;73.232;2022-07-06T13:27:28;14.10;;;4.65;;
72755;SDS011;60881;55.002;73.232;2022-07-06T13:29:54;15.00;;;3.90;;
72755;SDS011;60881;55.002;73.232;2022-07-06T13:32:21;6.28;;;3.40;;
72755;SDS011;60881;55.002;73.232;2022-07-06T13:34:47;10.57;;;3.33;;
72755;SDS011;60881;55.002;73.232;2022-07-06T13:37:24;10.60;;;4.00;;
72755;SDS011;60881;55.002;73.232;2022-07-06T13:39:52;8.20;;;3.65;;
72755;SDS011;60881;55.002;73.232;2022-07-06T13:42:19;16.63;;;3.10;;
72755;SDS011;60881;55.002;73.232;2022-07-06T13:44:55;6.60;;;3.45;;
72755;SDS011;60881;55.002;73.232;2022-07-06T13:47:21;19.08;;;7.90;;
72755;SDS011;60881;55.002;73.232;2022-07-06T13:49:51;16.48;;;6.88;;
72755;SDS011;60881;55.002;73.232;2022-07-06T13:52:18;9.90;;;5.97;;
72755;SDS011;60881;55.002;73.232;2022-07-06T13:54:44;20.40;;;4.85;;
72755;SDS011;60881;55.002;73.232;2022-07-06T13:57:14;8.95;;;4.03;;
72755;SDS011;60881;55.002;73.232;2022-07-06T13:59:41;13.07;;;3.65;;
72755;SDS011;60881;55.002;73.232;2022-07-06T14:02:08;11.77;;;3.92;;
72755;SDS011;60881;55.002;73.232;2022-07-06T14:04:35;7.30;;;4.43;;
72755;SDS011;60881;55.002;73.232;2022-07-06T14:07:02;14.32;;;4.05;;
72755;SDS011;60881;55.002;73.232;2022-07-06T14:09:34;12.60;;;5.07;;
72755;SDS011;60881;55.002;73.232;2022-07-06T14:12:05;11.05;;;3.80;;
72755;SDS011;60881;55.002;73.232;2022-07-06T14:14:34;8.60;;;4.40;;
72755;SDS011;60881;55.002;73.232;2022-07-06T14:17:00;15.82;;;4.50;;
72755;SDS011;60881;55.002;73.232;2022-07-06T14:19:27;8.57;;;3.85;;
72755;SDS011;60881;55.002;73.232;2022-07-06T14:21:54;9.93;;;3.53;;
72755;SDS011;60881;55.002;73.232;2022-07-06T14:24:30;8.38;;;3.70;;
72755;SDS011;60881;55.002;73.232;2022-07-06T14:26:58;5.55;;;3.08;;
72755;SDS011;60881;55.002;73.232;2022-07-06T14:29:24;6.00;;;2.60;;
72755;SDS011;60881;55.002;73.232;2022-07-06T14:31:52;13.30;;;3.13;;
72755;SDS011;60881;55.002;73.232;2022-07-06T14:34:18;7.70;;;2.97;;
72755;SDS011;60881;55.002;73.232;2022-07-06T14:36:45;11.65;;;3.30;;
72755;SDS011;60881;55.002;73.232;2022-07-06T14:39:11;6.50;;;3.20;;
72755;SDS011;60881;55.002;73.232;2022-07-06T14:41:38;12.93;;;4.45;;
72755;SDS011;60881;55.002;73.232;2022-07-06T14:44:05;15.05;;;4.13;;